Time;durP1;ratioP1;P1;durP2;ratioP2;P2;SDS_P1;SDS_P2;PMS_P1;PMS_P2;Temp;Humidity;BMP_temperature;BMP_pressure;BME280_temperature;BME280_humidity;BME280_pressure;Samples;Min_cycle;Max_cycle;Signal;HPM_P1;HPM_P2
2023/06/10 00:05:43;;;;;;;;;;;19.10;99.90;;;;;;20898975;28;19972;-77
2023/06/10 00:15:43;;;;;;;;;;;18.30;99.90;;;;;;20886269;28;20019;-77
2023/06/10 00:25:44;;;;;;;;;;;17.80;99.90;;;;;;20854900;28;19923;-77
2023/06/10 00:35:44;;;;;;;;;;;17.40;99.90;;;;;;20841657;28;20000;-77
2023/06/10 00:45:45;;;;;;;;;;;17.50;99.90;;;;;;20841058;28;20352;-77
2023/06/10 00:55:46;;;;;;;;;;;17.00;99.90;;;;;;20831230;28;19913;-77
2023/06/10 01:05:51;;;;;;;;;;;16.50;99.90;;;;;;20835353;28;20276;-76
2023/06/10 01:15:52;;;;;;;;;;;16.30;99.90;;;;;;20834608;28;19913;-76
2023/06/10 01:25:56;;;;;;;;;;;16.00;99.90;;;;;;20833710;28;19917;-76
2023/06/10 01:36:01;;;;;;;;;;;15.60;99.90;;;;;;20831301;28;19917;-76
2023/06/10 01:46:03;;;;;;;;;;;15.50;99.90;;;;;;20830969;28;20407;-76
2023/06/10 01:56:05;;;;;;;;;;;15.40;99.90;;;;;;20849862;28;19924;-76
2023/06/10 02:06:05;;;;;;;;;;;15.40;99.90;;;;;;20887079;28;19924;-76
2023/06/10 02:16:06;;;;;;;;;;;15.20;99.90;;;;;;20912146;28;19913;-76
2023/06/10 02:26:07;;;;;;;;;;;14.60;99.90;;;;;;20873571;28;19976;-76
2023/06/10 02:36:07;;;;;;;;;;;14.90;99.90;;;;;;20896405;28;19916;-76
2023/06/10 02:46:08;;;;;;;;;;;14.90;99.90;;;;;;20884750;28;19964;-76
2023/06/10 02:56:12;;;;;;;;;;;14.70;99.90;;;;;;20856447;28;20220;-76
2023/06/10 03:06:13;;;;;;;;;;;14.20;99.90;;;;;;20875116;28;19916;-76
2023/06/10 03:16:14;;;;;;;;;;;14.00;99.90;;;;;;20890352;28;19956;-76
2023/06/10 03:26:16;;;;;;;;;;;13.80;99.90;;;;;;20886469;28;20388;-76
2023/06/10 03:36:20;;;;;;;;;;;13.60;99.90;;;;;;20822097;28;19917;-75
2023/06/10 03:46:21;;;;;;;;;;;13.70;99.90;;;;;;20822324;28;19999;-75
2023/06/10 03:56:22;;;;;;;;;;;13.80;99.90;;;;;;20821879;28;20616;-76
2023/06/10 04:06:25;;;;;;;;;;;13.90;99.90;;;;;;20825509;28;19924;-75
2023/06/10 04:16:28;;;;;;;;;;;13.80;99.90;;;;;;20834978;28;19913;-76
2023/06/10 04:26:29;;;;;;;;;;;13.80;99.90;;;;;;20834085;28;20016;-76
2023/06/10 04:36:30;;;;;;;;;;;14.10;99.90;;;;;;20854227;28;19952;-76
2023/06/10 04:46:31;;;;;;;;;;;14.30;99.90;;;;;;20904497;28;20012;-76
2023/06/10 04:56:32;;;;;;;;;;;14.90;99.90;;;;;;20875488;28;19917;-76
2023/06/10 05:06:33;;;;;;;;;;;15.40;99.90;;;;;;20832580;28;19940;-76
2023/06/10 05:16:33;;;;;;;;;;;15.80;99.90;;;;;;20832034;28;20067;-76
2023/06/10 05:26:37;;;;;;;;;;;16.30;99.90;;;;;;20831345;28;19917;-77
2023/06/10 05:36:37;;;;;;;;;;;16.60;99.90;;;;;;20838553;28;20007;-77
2023/06/10 05:46:38;;;;;;;;;;;17.10;99.90;;;;;;20879232;28;19917;-77
2023/06/10 05:56:39;;;;;;;;;;;17.60;99.90;;;;;;20888420;28;19960;-77
2023/06/10 06:06:40;;;;;;;;;;;17.80;99.90;;;;;;20827547;28;20240;-77
2023/06/10 06:16:41;;;;;;;;;;;18.40;99.90;;;;;;20826993;28;20322;-77
2023/06/10 06:26:41;;;;;;;;;;;18.90;99.90;;;;;;20825941;28;19929;-77
2023/06/10 06:36:42;;;;;;;;;;;19.50;99.90;;;;;;20828561;28;19917;-77
2023/06/10 06:46:42;;;;;;;;;;;19.60;99.90;;;;;;20856432;28;19952;-78
2023/06/10 06:56:43;;;;;;;;;;;20.10;99.90;;;;;;20882302;28;20291;-77
2023/06/10 07:06:44;;;;;;;;;;;20.40;99.90;;;;;;20833972;28;19917;-78
2023/06/10 07:16:46;;;;;;;;;;;21.20;99.90;;;;;;20899039;28;19928;-77
2023/06/10 07:26:46;;;;;;;;;;;21.40;99.90;;;;;;20885468;28;20023;-78
2023/06/10 07:36:47;;;;;;;;;;;22.00;99.90;;;;;;20831990;28;19924;-77
2023/06/10 07:46:48;;;;;;;;;;;22.70;99.90;;;;;;20868413;28;19970;-78
2023/06/10 07:56:48;;;;;;;;;;;23.50;99.90;;;;;;20875831;28;20063;-77
2023/06/10 08:06:49;;;;;;;;;;;23.60;99.90;;;;;;20928616;28;19927;-78
2023/06/10 08:16:50;;;;;;;;;;;23.70;99.90;;;;;;20928486;28;19913;-78
2023/06/10 08:26:50;;;;;;;;;;;23.80;99.90;;;;;;20899550;28;19932;-76
2023/06/10 08:36:53;;;;;;;;;;;25.40;99.90;;;;;;20869645;28;19968;-75
2023/06/10 08:46:55;;;;;;;;;;;25.80;99.90;;;;;;20886537;28;19995;-76
2023/06/10 08:56:57;;;;;;;;;;;25.80;99.90;;;;;;20886390;28;19952;-76
2023/06/10 09:06:57;;;;;;;;;;;25.60;99.90;;;;;;20842145;28;19917;-76
2023/06/10 09:16:58;;;;;;;;;;;26.60;99.90;;;;;;20834705;28;20360;-76
2023/06/10 09:27:06;;;;;;;;;;;27.40;99.90;;;;;;20832760;28;19921;-77
2023/06/10 09:37:08;;;;;;;;;;;27.80;98.30;;;;;;20846016;28;19923;-78
2023/06/10 09:47:08;;;;;;;;;;;28.50;96.50;;;;;;20848589;28;19924;-78
2023/06/10 09:57:10;;;;;;;;;;;28.40;97.10;;;;;;20885899;28;20300;-76
2023/06/10 10:07:11;;;;;;;;;;;28.00;95.50;;;;;;20915263;28;20580;-77
2023/06/10 10:17:14;;;;;;;;;;;28.90;94.20;;;;;;20837240;28;19913;-78
2023/06/10 10:27:18;;;;;;;;;;;30.10;92.90;;;;;;20810917;28;20031;-78
2023/06/10 10:37:19;;;;;;;;;;;30.40;91.60;;;;;;20841677;28;19917;-77
2023/06/10 10:47:21;;;;;;;;;;;29.90;91.50;;;;;;20826286;28;19916;-77
2023/06/10 10:57:23;;;;;;;;;;;29.80;91.90;;;;;;20824401;28;20339;-77
2023/06/10 11:07:29;;;;;;;;;;;30.20;89.00;;;;;;20827634;28;19916;-78
2023/06/10 11:17:29;;;;;;;;;;;29.00;90.40;;;;;;20832403;28;19924;-77
2023/06/10 11:27:38;;;;;;;;;;;30.80;88.70;;;;;;20826985;28;19917;-77
2023/06/10 11:37:38;;;;;;;;;;;30.40;88.20;;;;;;20843539;28;19917;-77
2023/06/10 11:47:39;;;;;;;;;;;30.50;90.10;;;;;;20861009;28;20302;-78
2023/06/10 11:57:40;;;;;;;;;;;30.80;90.00;;;;;;20904247;28;20008;-77
2023/06/10 12:07:40;;;;;;;;;;;30.40;88.30;;;;;;20823358;28;19971;-77
2023/06/10 12:17:42;;;;;;;;;;;29.30;89.50;;;;;;20894403;28;19919;-77
2023/06/10 12:27:53;;;;;;;;;;;30.90;87.20;;;;;;20890785;28;19917;-78
2023/06/10 12:38:01;;;;;;;;;;;31.20;84.60;;;;;;20903878;28;19916;-78
2023/06/10 12:48:08;;;;;;;;;;;31.80;83.80;;;;;;20923928;28;20422;-78
2023/06/10 12:58:09;;;;;;;;;;;31.60;84.50;;;;;;20925502;28;19927;-77
2023/06/10 13:08:10;;;;;;;;;;;31.80;81.60;;;;;;20912039;28;20295;-77
2023/06/10 13:18:10;;;;;;;;;;;30.50;83.20;;;;;;20938345;28;20007;-77
2023/06/10 13:28:11;;;;;;;;;;;31.40;82.80;;;;;;20846433;28;19963;-78
2023/06/10 13:38:12;;;;;;;;;;;31.40;80.50;;;;;;20842827;28;20023;-78
2023/06/10 13:48:13;;;;;;;;;;;31.50;83.30;;;;;;20877124;28;20253;-77
2023/06/10 13:58:13;;;;;;;;;;;31.90;80.30;;;;;;20863898;28;19917;-77
2023/06/10 14:08:14;;;;;;;;;;;31.80;79.80;;;;;;20851897;28;19917;-77
2023/06/10 14:18:15;;;;;;;;;;;31.70;77.50;;;;;;20823961;28;19960;-77
2023/06/10 14:28:15;;;;;;;;;;;32.00;78.00;;;;;;20844835;28;19921;-77
2023/06/10 14:38:16;;;;;;;;;;;31.80;79.80;;;;;;20841632;28;19917;-78
2023/06/10 14:48:16;;;;;;;;;;;31.90;77.10;;;;;;20835263;28;19921;-77
2023/06/10 14:58:17;;;;;;;;;;;31.60;79.80;;;;;;20839056;28;19913;-78
2023/06/10 15:08:18;;;;;;;;;;;30.40;79.80;;;;;;20827257;28;19967;-77
2023/06/10 15:18:18;;;;;;;;;;;31.20;82.50;;;;;;20824961;28;20323;-78
2023/06/10 15:28:19;;;;;;;;;;;31.10;82.20;;;;;;20829237;28;19917;-79
2023/06/10 15:38:20;;;;;;;;;;;31.20;80.70;;;;;;20833152;28;19943;-78
2023/06/10 15:48:20;;;;;;;;;;;30.90;82.50;;;;;;20836844;28;20520;-78
2023/06/10 15:58:21;;;;;;;;;;;30.60;82.60;;;;;;20840802;28;19920;-78
2023/06/10 16:08:22;;;;;;;;;;;30.00;83.70;;;;;;20882690;28;19936;-77
2023/06/10 16:18:22;;;;;;;;;;;29.90;85.00;;;;;;20882343;28;19959;-77
2023/06/10 16:28:23;;;;;;;;;;;29.60;84.60;;;;;;20853947;28;19989;-77
2023/06/10 16:38:24;;;;;;;;;;;29.20;85.80;;;;;;20877872;28;19917;-77
2023/06/10 16:48:24;;;;;;;;;;;28.50;86.80;;;;;;20902333;28;19917;-76
2023/06/10 16:58:25;;;;;;;;;;;27.90;93.90;;;;;;20833046;28;19991;-77
2023/06/10 17:08:26;;;;;;;;;;;27.20;96.70;;;;;;20856337;28;19916;-78
2023/06/10 17:18:26;;;;;;;;;;;28.00;91.10;;;;;;20859723;28;20323;-77
2023/06/10 17:28:27;;;;;;;;;;;27.40;92.30;;;;;;20867644;28;19917;-77
2023/06/10 17:38:27;;;;;;;;;;;27.20;92.00;;;;;;20831156;28;19996;-77
2023/06/10 17:48:28;;;;;;;;;;;26.60;93.80;;;;;;20858416;28;19921;-77
2023/06/10 17:58:29;;;;;;;;;;;26.00;96.20;;;;;;20875571;28;19928;-77
2023/06/10 18:08:31;;;;;;;;;;;25.10;99.90;;;;;;20905491;28;19921;-77
2023/06/10 18:18:31;;;;;;;;;;;24.70;99.90;;;;;;20882461;28;19966;-77
2023/06/10 18:28:32;;;;;;;;;;;24.60;99.90;;;;;;20898962;28;19999;-78
2023/06/10 18:38:33;;;;;;;;;;;23.60;99.90;;;;;;20907696;28;19917;-77
2023/06/10 18:48:33;;;;;;;;;;;23.50;99.90;;;;;;20892931;28;20299;-77
2023/06/10 18:58:37;;;;;;;;;;;23.70;99.90;;;;;;20826536;28;19917;-77
2023/06/10 19:08:38;;;;;;;;;;;23.60;99.90;;;;;;20829542;28;19917;-78
2023/06/10 19:18:38;;;;;;;;;;;24.00;99.90;;;;;;20825825;28;20384;-79
2023/06/10 19:28:39;;;;;;;;;;;24.00;99.90;;;;;;20840938;28;19924;-77
2023/06/10 19:38:40;;;;;;;;;;;23.90;99.90;;;;;;20833487;28;19921;-77
2023/06/10 19:48:41;;;;;;;;;;;23.70;99.90;;;;;;20858976;28;19923;-77
2023/06/10 19:58:41;;;;;;;;;;;23.50;99.90;;;;;;20848792;28;19967;-77
2023/06/10 20:08:42;;;;;;;;;;;23.20;99.90;;;;;;20877190;28;19916;-76
2023/06/10 20:18:43;;;;;;;;;;;22.60;99.90;;;;;;20860150;28;19913;-77
2023/06/10 20:28:44;;;;;;;;;;;22.20;99.90;;;;;;20844954;28;19917;-77
2023/06/10 20:38:45;;;;;;;;;;;21.90;99.90;;;;;;20840401;28;20296;-76
2023/06/10 20:48:46;;;;;;;;;;;21.50;99.90;;;;;;20834189;28;19990;-76
2023/06/10 20:58:50;;;;;;;;;;;21.40;99.90;;;;;;20834431;28;19913;-76
2023/06/10 21:08:51;;;;;;;;;;;21.30;99.90;;;;;;20833634;28;19928;-76
2023/06/10 21:18:52;;;;;;;;;;;21.20;99.90;;;;;;20834456;28;19913;-77
2023/06/10 21:28:54;;;;;;;;;;;20.90;99.90;;;;;;20848379;28;19917;-76
2023/06/10 21:38:54;;;;;;;;;;;20.90;99.90;;;;;;20831292;28;19924;-76
2023/06/10 21:48:55;;;;;;;;;;;20.70;99.90;;;;;;20830610;28;19924;-76
2023/06/10 21:58:56;;;;;;;;;;;20.40;99.90;;;;;;20829431;28;20371;-76
2023/06/10 22:08:57;;;;;;;;;;;20.30;99.90;;;;;;20829557;28;20380;-76
2023/06/10 22:18:57;;;;;;;;;;;20.00;99.90;;;;;;20829200;28;19967;-76
2023/06/10 22:28:58;;;;;;;;;;;20.00;99.90;;;;;;20828459;28;20017;-76
2023/06/10 22:38:58;;;;;;;;;;;20.00;99.90;;;;;;20827551;28;19917;-76
2023/06/10 22:48:59;;;;;;;;;;;19.90;99.90;;;;;;20826614;28;19917;-76
2023/06/10 22:59:02;;;;;;;;;;;19.90;99.90;;;;;;20854873;28;19919;-77
2023/06/10 23:09:03;;;;;;;;;;;19.90;99.90;;;;;;20832105;28;19927;-76
2023/06/10 23:19:03;;;;;;;;;;;19.60;99.90;;;;;;20880597;28;19913;-76
2023/06/10 23:29:04;;;;;;;;;;;19.20;99.90;;;;;;20834266;28;19988;-76
2023/06/10 23:39:05;;;;;;;;;;;19.20;99.90;;;;;;20822676;28;19924;-76
2023/06/10 23:49:06;;;;;;;;;;;19.00;99.90;;;;;;20822799;28;19917;-76
2023/06/10 23:59:07;;;;;;;;;;;18.90;99.90;;;;;;20822223;28;20003;-77
